Time;durP1;ratioP1;P1;durP2;ratioP2;P2;SDS_P1;SDS_P2;PMS_P1;PMS_P2;Temp;Humidity;BMP_temperature;BMP_pressure;BME280_temperature;BME280_humidity;BME280_pressure;Samples;Min_cycle;Max_cycle;Signal;HPM_P1;HPM_P2
2023/05/12 00:02:17;;;;;;;6.50;4.07;;;17.30;66.90;;;;;;5021940;28;20287;-76
2023/05/12 00:04:43;;;;;;;7.17;4.10;;;17.20;65.50;;;;;;5026826;28;20674;-73
2023/05/12 00:07:08;;;;;;;4.53;3.83;;;17.20;65.70;;;;;;5028488;28;20673;-77
2023/05/12 00:09:35;;;;;;;7.43;4.10;;;17.30;66.10;;;;;;5026904;28;20283;-73
2023/05/12 00:12:00;;;;;;;5.83;3.80;;;17.10;66.20;;;;;;5024111;28;20200;-73
2023/05/12 00:14:26;;;;;;;4.47;4.07;;;17.10;66.20;;;;;;5026417;28;20206;-72
2023/05/12 00:16:51;;;;;;;5.13;3.83;;;17.10;65.50;;;;;;5028086;28;20199;-73
2023/05/12 00:19:18;;;;;;;5.73;3.60;;;17.10;65.00;;;;;;5024665;28;20210;-73
2023/05/12 00:21:44;;;;;;;4.73;4.33;;;17.00;65.00;;;;;;5025882;28;20203;-73
2023/05/12 00:24:13;;;;;;;5.17;4.03;;;16.90;65.00;;;;;;5030459;28;20203;-74
2023/05/12 00:26:38;;;;;;;7.53;4.57;;;16.80;65.70;;;;;;5019384;28;20224;-74
2023/05/12 00:29:04;;;;;;;5.97;4.50;;;16.80;65.30;;;;;;5027609;28;20216;-74
2023/05/12 00:31:30;;;;;;;7.57;5.00;;;16.80;65.10;;;;;;5027323;28;20191;-73
2023/05/12 00:33:55;;;;;;;5.00;4.50;;;16.70;65.20;;;;;;5027092;28;20641;-73
2023/05/12 00:36:21;;;;;;;6.13;4.33;;;16.70;65.50;;;;;;5029391;28;20603;-73
2023/05/12 00:38:47;;;;;;;4.60;3.93;;;16.80;65.30;;;;;;5034840;28;20204;-73
2023/05/12 00:41:12;;;;;;;6.90;4.00;;;16.70;65.50;;;;;;5036393;28;20738;-74
2023/05/12 00:43:38;;;;;;;6.13;4.67;;;16.70;65.20;;;;;;5034167;28;20558;-74
2023/05/12 00:46:05;;;;;;;4.53;4.13;;;16.70;65.10;;;;;;5033724;28;20242;-74
2023/05/12 00:48:31;;;;;;;4.60;3.70;;;16.70;65.20;;;;;;5023005;28;20205;-72
2023/05/12 00:50:58;;;;;;;5.57;3.80;;;16.70;64.80;;;;;;5028944;28;20199;-73
2023/05/12 00:53:24;;;;;;;5.83;3.93;;;16.70;65.10;;;;;;5034266;28;20768;-73
2023/05/12 00:55:50;;;;;;;5.90;4.30;;;16.70;65.60;;;;;;5035222;28;20197;-72
2023/05/12 00:58:15;;;;;;;8.23;4.20;;;16.80;65.20;;;;;;5026163;28;20299;-72
2023/05/12 01:00:41;;;;;;;5.23;4.03;;;16.60;66.30;;;;;;5026550;28;20200;-72
2023/05/12 01:03:07;;;;;;;7.70;3.83;;;16.60;65.90;;;;;;5034439;28;20608;-72
2023/05/12 01:05:56;;;;;;;4.70;4.30;;;16.60;65.50;;;;;;5033365;28;20225;-73
2023/05/12 01:08:23;;;;;;;5.80;4.70;;;16.50;65.40;;;;;;5035768;28;20221;-72
2023/05/12 01:10:49;;;;;;;5.93;4.17;;;16.40;66.80;;;;;;5035583;28;20199;-72
2023/05/12 01:13:14;;;;;;;6.87;3.83;;;16.30;66.90;;;;;;5035859;28;20204;-73
2023/05/12 01:15:45;;;;;;;6.17;3.73;;;16.30;67.50;;;;;;5035151;28;20574;-72
2023/05/12 01:18:13;;;;;;;4.30;3.70;;;16.30;66.60;;;;;;5030509;28;20672;-73
2023/05/12 01:20:41;;;;;;;7.97;4.73;;;16.20;66.20;;;;;;5035160;28;20724;-73
2023/05/12 01:23:08;;;;;;;6.40;4.60;;;16.20;67.70;;;;;;5035920;28;20294;-73
2023/05/12 01:25:34;;;;;;;9.43;4.10;;;16.00;68.00;;;;;;5025221;28;20219;-73
2023/05/12 01:28:01;;;;;;;4.73;3.73;;;16.00;69.10;;;;;;5029688;28;20215;-73
2023/05/12 01:30:28;;;;;;;6.27;3.60;;;16.00;68.90;;;;;;5021834;28;20209;-72
2023/05/12 01:32:54;;;;;;;5.73;4.17;;;16.00;68.50;;;;;;5025724;28;20207;-72
2023/05/12 01:35:19;;;;;;;6.07;3.87;;;16.00;68.30;;;;;;5027519;28;20195;-73
2023/05/12 01:37:45;;;;;;;4.97;4.23;;;15.90;69.30;;;;;;5033600;28;20341;-71
2023/05/12 01:40:11;;;;;;;9.73;4.40;;;15.80;69.10;;;;;;5026820;28;20282;-73
2023/05/12 01:42:41;;;;;;;4.63;4.13;;;15.90;68.90;;;;;;5022701;28;20198;-73
2023/05/12 01:45:08;;;;;;;4.23;3.83;;;15.90;69.40;;;;;;5034585;28;20222;-73
2023/05/12 01:47:36;;;;;;;6.83;4.47;;;15.90;69.30;;;;;;5034227;28;20202;-72
2023/05/12 01:50:02;;;;;;;4.10;3.70;;;15.90;69.50;;;;;;5034740;28;20247;-76
2023/05/12 01:52:27;;;;;;;7.57;4.33;;;15.80;69.70;;;;;;5035689;28;20266;-75
2023/05/12 01:54:53;;;;;;;6.37;4.27;;;15.90;68.30;;;;;;5035368;28;20594;-72
2023/05/12 01:57:19;;;;;;;8.97;4.07;;;15.80;68.10;;;;;;5035481;28;20198;-72
2023/05/12 01:59:44;;;;;;;5.37;4.17;;;15.90;68.30;;;;;;5035672;28;20191;-72
2023/05/12 02:02:11;;;;;;;5.13;4.57;;;15.90;69.10;;;;;;5035158;28;20186;-73
2023/05/12 02:04:37;;;;;;;5.30;4.80;;;15.80;69.10;;;;;;5024673;28;20222;-73
2023/05/12 02:07:02;;;;;;;5.97;4.27;;;15.80;69.20;;;;;;5024695;28;20250;-73
2023/05/12 02:09:28;;;;;;;5.27;4.20;;;15.70;69.80;;;;;;5026718;28;20191;-72
2023/05/12 02:11:53;;;;;;;5.50;4.00;;;15.60;69.90;;;;;;5035493;28;20852;-72
2023/05/12 02:14:19;;;;;;;4.60;4.20;;;15.60;69.90;;;;;;5033142;28;20237;-73
2023/05/12 02:16:46;;;;;;;4.50;4.03;;;15.60;70.30;;;;;;5026047;28;20226;-73
2023/05/12 02:19:11;;;;;;;5.37;4.00;;;15.60;70.60;;;;;;5028550;28;20759;-73
2023/05/12 02:21:36;;;;;;;4.80;4.40;;;15.60;70.50;;;;;;5024426;28;20348;-74
2023/05/12 02:24:02;;;;;;;5.43;4.40;;;15.60;69.80;;;;;;5032992;28;20527;-72
2023/05/12 02:26:27;;;;;;;5.70;4.10;;;15.70;69.90;;;;;;5026187;28;20273;-72
2023/05/12 02:28:53;;;;;;;4.67;4.27;;;15.60;69.30;;;;;;5032499;28;20318;-72
2023/05/12 02:31:18;;;;;;;6.50;3.77;;;15.60;70.30;;;;;;5021888;28;20211;-72
2023/05/12 02:33:44;;;;;;;5.33;3.67;;;15.40;71.00;;;;;;5031162;28;20201;-72
2023/05/12 02:36:10;;;;;;;4.30;3.90;;;15.30;71.30;;;;;;5028659;28;20198;-74
2023/05/12 02:38:35;;;;;;;6.23;4.07;;;15.40;70.80;;;;;;5026563;28;20199;-73
2023/05/12 02:41:01;;;;;;;8.23;4.60;;;15.30;71.90;;;;;;5028871;28;20210;-73
2023/05/12 02:43:26;;;;;;;6.43;3.90;;;15.10;72.50;;;;;;5026744;28;20281;-71
2023/05/12 02:45:52;;;;;;;6.80;4.50;;;15.10;72.70;;;;;;5027104;28;20219;-74
2023/05/12 02:48:18;;;;;;;7.57;3.80;;;15.00;72.50;;;;;;5036181;28;20290;-73
2023/05/12 02:50:44;;;;;;;5.57;4.30;;;15.00;72.60;;;;;;5036354;28;20620;-74
2023/05/12 02:53:09;;;;;;;8.60;5.67;;;15.10;72.30;;;;;;5033946;28;20203;-73
2023/05/12 02:55:35;;;;;;;6.90;4.77;;;15.10;72.80;;;;;;5034687;28;20213;-72
2023/05/12 02:58:01;;;;;;;6.03;4.23;;;15.10;72.50;;;;;;5036685;28;20209;-73
2023/05/12 03:00:26;;;;;;;5.20;4.70;;;14.90;72.90;;;;;;5039829;28;20572;-73
2023/05/12 03:02:52;;;;;;;7.97;4.07;;;14.90;73.60;;;;;;5039742;28;20298;-73
2023/05/12 03:05:17;;;;;;;8.67;4.70;;;14.80;73.90;;;;;;5038065;28;20281;-74
2023/05/12 03:07:43;;;;;;;5.83;4.60;;;14.60;74.30;;;;;;5034433;28;20223;-74
2023/05/12 03:10:09;;;;;;;7.60;5.00;;;14.60;75.00;;;;;;5031384;28;20302;-74
2023/05/12 03:12:35;;;;;;;5.93;4.13;;;14.50;75.50;;;;;;5039516;28;20296;-73
2023/05/12 03:15:00;;;;;;;4.87;4.47;;;14.50;75.90;;;;;;5039320;28;20187;-72
2023/05/12 03:17:26;;;;;;;6.13;4.77;;;14.50;75.90;;;;;;5039231;28;20187;-72
2023/05/12 03:19:51;;;;;;;6.77;4.30;;;14.50;75.60;;;;;;5022734;28;20357;-73
2023/05/12 03:22:17;;;;;;;6.23;4.60;;;14.50;76.20;;;;;;5037855;28;20332;-72
2023/05/12 03:24:42;;;;;;;6.90;4.97;;;14.40;76.70;;;;;;5029134;28;20195;-72
2023/05/12 03:27:08;;;;;;;4.80;4.27;;;14.40;76.70;;;;;;5031818;28;20223;-71
2023/05/12 03:29:33;;;;;;;8.47;4.93;;;14.40;77.10;;;;;;5025800;28;20254;-73
2023/05/12 03:31:59;;;;;;;9.83;4.73;;;14.40;77.30;;;;;;5024498;28;20207;-73
2023/05/12 03:34:25;;;;;;;6.80;4.37;;;14.40;77.60;;;;;;5027346;28;20292;-73
2023/05/12 03:36:50;;;;;;;6.23;4.63;;;14.40;77.40;;;;;;5029340;28;20238;-72
2023/05/12 03:39:16;;;;;;;7.13;4.00;;;14.50;77.80;;;;;;5033126;28;20210;-72
2023/05/12 03:41:41;;;;;;;6.60;4.40;;;14.30;77.80;;;;;;5026720;28;20198;-73
2023/05/12 03:44:07;;;;;;;9.03;4.90;;;14.30;78.50;;;;;;5029417;28;20201;-72
2023/05/12 03:46:33;;;;;;;10.60;6.17;;;14.10;79.50;;;;;;5026733;28;20237;-72
2023/05/12 03:48:59;;;;;;;8.33;4.57;;;14.10;79.50;;;;;;5028558;28;20594;-72
2023/05/12 03:51:24;;;;;;;5.93;4.70;;;14.10;79.40;;;;;;5028108;28;20195;-75
2023/05/12 03:53:50;;;;;;;5.67;4.20;;;14.20;79.60;;;;;;5028446;28;20202;-71
2023/05/12 03:56:16;;;;;;;7.33;4.70;;;14.10;79.90;;;;;;5028240;28;21032;-74
2023/05/12 03:58:42;;;;;;;6.07;4.93;;;14.20;80.50;;;;;;5018147;28;20203;-73
2023/05/12 04:01:07;;;;;;;7.43;4.63;;;14.00;80.10;;;;;;5031256;28;20302;-71
2023/05/12 04:03:33;;;;;;;10.10;5.17;;;14.00;81.20;;;;;;5024432;28;20289;-72
2023/05/12 04:06:00;;;;;;;11.73;4.70;;;14.00;81.40;;;;;;5028799;28;20219;-72
2023/05/12 04:08:26;;;;;;;5.73;4.17;;;13.90;81.90;;;;;;5028896;28;20723;-71
2023/05/12 04:10:55;;;;;;;6.53;4.90;;;13.80;82.10;;;;;;5026600;28;20195;-71
2023/05/12 04:13:20;;;;;;;13.40;5.13;;;13.80;83.00;;;;;;5023693;28;20191;-72
2023/05/12 04:15:46;;;;;;;5.27;4.77;;;13.80;83.00;;;;;;5027749;28;20203;-72
2023/05/12 04:18:11;;;;;;;9.07;4.77;;;13.80;83.20;;;;;;5027750;28;20207;-71
2023/05/12 04:20:37;;;;;;;7.83;4.47;;;13.90;83.80;;;;;;5027625;28;20656;-72
2023/05/12 04:23:02;;;;;;;5.97;4.47;;;13.80;83.80;;;;;;5027896;28;20195;-72
2023/05/12 04:25:28;;;;;;;5.63;4.47;;;13.90;82.70;;;;;;5025821;28;20217;-71
2023/05/12 04:27:53;;;;;;;5.47;4.97;;;13.90;83.70;;;;;;5028866;28;20204;-71
2023/05/12 04:30:19;;;;;;;4.70;4.10;;;13.80;84.00;;;;;;5030008;28;20705;-72
2023/05/12 04:32:44;;;;;;;5.27;4.77;;;13.80;84.10;;;;;;5026619;28;20190;-71
2023/05/12 04:35:10;;;;;;;7.00;5.10;;;13.90;84.40;;;;;;5028379;28;20191;-71
2023/05/12 04:37:35;;;;;;;5.77;5.20;;;13.80;85.00;;;;;;5025692;28;20723;-70
2023/05/12 04:40:01;;;;;;;8.27;4.90;;;13.70;85.70;;;;;;5027484;28;20200;-70
2023/05/12 04:42:27;;;;;;;10.93;5.73;;;13.60;86.50;;;;;;5027917;28;20190;-70
2023/05/12 04:44:52;;;;;;;9.73;4.97;;;13.60;88.20;;;;;;5027460;28;20587;-70
2023/05/12 04:47:18;;;;;;;5.73;4.83;;;13.70;87.80;;;;;;5030579;28;20222;-71
2023/05/12 04:49:44;;;;;;;7.17;5.30;;;13.80;87.10;;;;;;5023895;28;20344;-71
2023/05/12 04:52:09;;;;;;;9.03;5.50;;;13.70;88.30;;;;;;5030302;28;20231;-72
2023/05/12 04:54:34;;;;;;;9.40;5.83;;;13.70;89.10;;;;;;5026893;28;20210;-71
2023/05/12 04:57:00;;;;;;;7.40;5.10;;;13.70;88.40;;;;;;5026893;28;20669;-71
2023/05/12 04:59:25;;;;;;;9.00;5.63;;;13.70;88.30;;;;;;5026523;28;20199;-71
2023/05/12 05:01:53;;;;;;;9.20;5.13;;;13.70;88.80;;;;;;5028135;28;20203;-72
2023/05/12 05:04:19;;;;;;;6.70;5.13;;;13.80;89.60;;;;;;5027993;28;20200;-71
2023/05/12 05:06:45;;;;;;;10.23;5.63;;;13.80;88.10;;;;;;5032819;28;20218;-72
2023/05/12 05:09:10;;;;;;;7.50;5.40;;;13.80;88.60;;;;;;5025254;28;20191;-72
2023/05/12 05:11:36;;;;;;;7.27;5.17;;;13.80;88.20;;;;;;5027424;28;20195;-72
2023/05/12 05:14:01;;;;;;;6.03;4.80;;;13.80;89.20;;;;;;5031349;28;20199;-72
2023/05/12 05:16:27;;;;;;;7.10;5.00;;;13.80;88.10;;;;;;5021211;28;20235;-72
2023/05/12 05:18:53;;;;;;;7.93;5.97;;;13.80;89.10;;;;;;5027549;28;20300;-72
2023/05/12 05:21:18;;;;;;;6.23;5.50;;;13.90;89.60;;;;;;5026959;28;20299;-73
2023/05/12 05:23:44;;;;;;;9.90;5.17;;;13.90;89.10;;;;;;5028893;28;20735;-73
2023/05/12 05:26:09;;;;;;;6.23;4.63;;;13.90;88.70;;;;;;5027195;28;20668;-73
2023/05/12 05:28:38;;;;;;;9.40;5.13;;;13.90;90.00;;;;;;5024702;28;20227;-72
2023/05/12 05:31:04;;;;;;;9.13;5.70;;;14.00;89.40;;;;;;5023758;28;20208;-73
2023/05/12 05:33:30;;;;;;;8.20;4.63;;;14.20;88.20;;;;;;5025330;28;20210;-73
2023/05/12 05:35:55;;;;;;;6.63;4.87;;;14.40;85.60;;;;;;5030060;28;20211;-73
2023/05/12 05:38:21;;;;;;;7.97;4.40;;;14.40;83.70;;;;;;5026972;28;20673;-73
2023/05/12 05:40:46;;;;;;;11.10;5.30;;;14.60;83.60;;;;;;5021304;28;20203;-72
2023/05/12 05:43:12;;;;;;;7.10;5.03;;;14.60;82.90;;;;;;5027307;28;20207;-73
2023/05/12 05:45:37;;;;;;;5.90;5.03;;;14.70;83.50;;;;;;5027182;28;20226;-73
2023/05/12 05:48:03;;;;;;;17.50;4.83;;;14.80;82.40;;;;;;5027674;28;20215;-72
2023/05/12 05:50:29;;;;;;;6.63;5.40;;;14.90;82.50;;;;;;5025757;28;20205;-72
2023/05/12 05:52:54;;;;;;;8.40;5.00;;;15.00;82.40;;;;;;5024650;28;20669;-72
2023/05/12 05:55:20;;;;;;;7.83;4.90;;;15.00;82.60;;;;;;5026555;28;20816;-72
2023/05/12 05:57:47;;;;;;;10.17;4.93;;;15.20;81.00;;;;;;5026447;28;20207;-72
2023/05/12 06:00:13;;;;;;;7.37;4.97;;;15.30;81.40;;;;;;5027525;28;20301;-70
2023/05/12 06:02:39;;;;;;;7.40;4.20;;;15.40;80.60;;;;;;5023088;28;20723;-71
2023/05/12 06:05:05;;;;;;;5.03;4.53;;;15.40;81.00;;;;;;5028555;28;20234;-71
2023/05/12 06:07:31;;;;;;;7.83;5.03;;;15.50;79.60;;;;;;5022847;28;20196;-72
2023/05/12 06:09:57;;;;;;;6.50;4.83;;;15.60;81.40;;;;;;5027039;28;20277;-72
2023/05/12 06:12:22;;;;;;;7.20;4.77;;;15.60;80.40;;;;;;5027312;28;20656;-71
2023/05/12 06:14:47;;;;;;;10.33;5.00;;;15.70;79.30;;;;;;5026836;28;20195;-72
2023/05/12 06:17:13;;;;;;;5.93;5.10;;;15.80;80.00;;;;;;5026122;28;20676;-71
2023/05/12 06:19:39;;;;;;;7.63;4.63;;;15.90;80.90;;;;;;5030712;28;20206;-72
2023/05/12 06:22:04;;;;;;;5.27;4.77;;;16.00;81.40;;;;;;5033051;28;20260;-71
2023/05/12 06:24:30;;;;;;;6.20;5.30;;;16.00;82.00;;;;;;5028329;28;20610;-73
2023/05/12 06:26:55;;;;;;;8.17;4.97;;;16.10;80.60;;;;;;5034577;28;20307;-73
2023/05/12 06:29:21;;;;;;;8.27;5.00;;;16.10;80.10;;;;;;5036128;28;20582;-72
2023/05/12 06:31:47;;;;;;;7.03;4.60;;;16.20;80.00;;;;;;5033594;28;20199;-73
2023/05/12 06:34:12;;;;;;;5.13;4.10;;;16.30;79.80;;;;;;5037433;28;20211;-72
2023/05/12 06:36:38;;;;;;;7.70;4.47;;;16.30;79.80;;;;;;5033177;28;20622;-73
2023/05/12 06:39:04;;;;;;;6.27;4.93;;;16.30;79.50;;;;;;5020924;28;20764;-73
2023/05/12 06:41:30;;;;;;;9.10;4.53;;;16.50;78.30;;;;;;5029793;28;20237;-72
2023/05/12 06:43:55;;;;;;;5.47;4.27;;;16.50;79.70;;;;;;5036741;28;20208;-73
2023/05/12 06:46:21;;;;;;;8.13;4.13;;;16.50;79.50;;;;;;5021953;28;20215;-71
2023/05/12 06:48:47;;;;;;;8.47;4.70;;;16.50;78.90;;;;;;5040236;28;20338;-72
2023/05/12 06:51:12;;;;;;;9.30;4.63;;;16.50;79.20;;;;;;5040187;28;20574;-72
2023/05/12 06:53:40;;;;;;;5.80;4.33;;;16.50;77.90;;;;;;5033111;28;20197;-72
2023/05/12 06:56:06;;;;;;;12.93;4.57;;;16.60;79.10;;;;;;5035433;28;20634;-72
2023/05/12 06:58:32;;;;;;;5.90;4.23;;;16.90;75.90;;;;;;5039686;28;20251;-72
2023/05/12 07:00:57;;;;;;;7.83;4.20;;;17.00;76.40;;;;;;5039779;28;20258;-71
2023/05/12 07:03:23;;;;;;;6.87;3.73;;;17.00;76.60;;;;;;5038785;28;20222;-71
2023/05/12 07:05:48;;;;;;;9.73;3.60;;;17.00;77.80;;;;;;5027626;28;20800;-71
2023/05/12 07:08:14;;;;;;;4.83;4.37;;;17.00;76.50;;;;;;5039428;28;20609;-71
2023/05/12 07:10:40;;;;;;;5.10;4.50;;;17.10;75.70;;;;;;5039784;28;20204;-70
2023/05/12 07:13:05;;;;;;;7.57;4.20;;;17.10;76.10;;;;;;5030176;28;20196;-71
2023/05/12 07:15:31;;;;;;;6.50;4.40;;;17.20;76.10;;;;;;5036327;28;20207;-71
2023/05/12 07:17:59;;;;;;;8.87;4.70;;;17.20;74.90;;;;;;5033201;28;20204;-73
2023/05/12 07:20:25;;;;;;;12.83;4.93;;;17.30;76.30;;;;;;5038030;28;20195;-76
2023/05/12 07:22:51;;;;;;;7.77;4.87;;;17.30;75.00;;;;;;5026242;28;20200;-76
2023/05/12 07:25:17;;;;;;;5.17;4.63;;;17.30;75.00;;;;;;5030874;28;20640;-76
2023/05/12 07:27:43;;;;;;;11.00;4.83;;;17.40;76.40;;;;;;5027865;28;20287;-76
2023/05/12 07:30:09;;;;;;;8.37;3.97;;;17.50;75.50;;;;;;5028887;28;20356;-77
2023/05/12 07:32:35;;;;;;;5.93;4.10;;;17.60;74.40;;;;;;5026559;28;20198;-75
2023/05/12 07:35:00;;;;;;;5.83;3.97;;;17.60;74.30;;;;;;5030113;28;20209;-76
2023/05/12 07:37:26;;;;;;;6.97;4.43;;;17.90;72.50;;;;;;5027462;28;20198;-77
2023/05/12 07:39:51;;;;;;;10.83;4.07;;;17.90;73.70;;;;;;5027281;28;20297;-77
2023/05/12 07:42:17;;;;;;;11.43;4.40;;;17.80;74.40;;;;;;5029586;28;20741;-76
2023/05/12 07:44:43;;;;;;;4.43;3.00;;;17.90;74.20;;;;;;5032430;28;20344;-76
2023/05/12 07:47:08;;;;;;;5.33;3.43;;;17.90;72.90;;;;;;5027935;28;20339;-78
2023/05/12 07:49:33;;;;;;;5.27;3.70;;;18.00;75.00;;;;;;5036985;28;20293;-77
2023/05/12 07:51:59;;;;;;;5.33;4.20;;;18.10;71.40;;;;;;5021266;28;20214;-77
2023/05/12 07:54:25;;;;;;;6.23;3.67;;;18.30;72.70;;;;;;5019772;28;20585;-76
2023/05/12 07:56:50;;;;;;;9.70;4.10;;;18.40;71.30;;;;;;5028962;28;20816;-78
2023/05/12 07:59:16;;;;;;;4.90;3.77;;;18.50;68.90;;;;;;5037596;28;20198;-76
2023/05/12 08:01:41;;;;;;;3.97;3.13;;;18.60;68.40;;;;;;5024647;28;20283;-83
2023/05/12 08:04:07;;;;;;;4.70;4.20;;;18.60;69.90;;;;;;5031803;28;20223;-83
2023/05/12 08:06:33;;;;;;;3.50;3.20;;;18.60;70.10;;;;;;5040901;28;20245;-83
2023/05/12 08:08:59;;;;;;;4.60;3.70;;;18.70;70.10;;;;;;5035820;28;20196;-81
2023/05/12 08:11:25;;;;;;;6.03;3.80;;;18.70;67.60;;;;;;5039801;28;20230;-82
2023/05/12 08:13:51;;;;;;;7.17;3.90;;;18.90;67.30;;;;;;5039975;28;20200;-81
2023/05/12 08:16:17;;;;;;;7.43;3.53;;;19.00;66.60;;;;;;5032958;28;20199;-84
2023/05/12 08:18:43;;;;;;;6.33;3.63;;;19.10;66.90;;;;;;5031331;28;20205;-83
2023/05/12 08:21:09;;;;;;;7.17;3.83;;;19.10;66.00;;;;;;5028851;28;20198;-80
2023/05/12 08:23:36;;;;;;;4.60;3.50;;;19.10;66.10;;;;;;5027529;28;20198;-81
2023/05/12 08:26:02;;;;;;;4.73;3.50;;;19.20;65.30;;;;;;5027878;28;20222;-80
2023/05/12 08:28:28;;;;;;;3.30;3.10;;;19.40;65.40;;;;;;5023728;28;20290;-80
2023/05/12 08:30:53;;;;;;;4.23;3.20;;;19.40;63.00;;;;;;5026848;28;20230;-80
2023/05/12 08:33:19;;;;;;;3.10;2.87;;;19.50;62.70;;;;;;5026493;28;20203;-79
2023/05/12 08:35:45;;;;;;;3.17;2.87;;;19.70;59.20;;;;;;5025664;28;20232;-77
2023/05/12 08:38:10;;;;;;;3.53;3.07;;;19.70;59.10;;;;;;5026618;28;20238;-78
2023/05/12 08:40:58;;;;;;;3.50;3.07;;;19.70;59.40;;;;;;5039350;28;20269;-80
2023/05/12 08:43:25;;;;;;;4.03;3.30;;;19.80;60.50;;;;;;5027943;28;20200;-79
2023/05/12 08:45:56;;;;;;;4.20;3.33;;;20.00;61.60;;;;;;5031650;28;20253;-77
2023/05/12 08:48:23;;;;;;;3.73;2.93;;;20.00;58.80;;;;;;5031205;28;20194;-77
2023/05/12 08:50:52;;;;;;;4.00;3.23;;;20.10;59.20;;;;;;5035034;28;20707;-77
2023/05/12 08:53:39;;;;;;;5.30;2.90;;;20.30;58.50;;;;;;5027838;28;20199;-79
2023/05/12 08:56:06;;;;;;;3.57;2.63;;;20.20;56.30;;;;;;5025589;28;20612;-77
2023/05/12 08:58:34;;;;;;;2.83;2.63;;;20.20;54.50;;;;;;5036828;28;20233;-76
2023/05/12 09:01:00;;;;;;;4.67;3.67;;;20.20;54.70;;;;;;5037459;28;20218;-76
2023/05/12 09:03:29;;;;;;;3.87;2.50;;;20.20;56.30;;;;;;5038109;28;20202;-75
2023/05/12 09:05:57;;;;;;;4.67;2.87;;;20.40;54.80;;;;;;5027939;28;20250;-75
2023/05/12 09:08:24;;;;;;;7.73;2.70;;;20.60;54.60;;;;;;5036713;28;20198;-76
2023/05/12 09:10:50;;;;;;;5.10;3.10;;;20.50;52.50;;;;;;5037679;28;20205;-77
2023/05/12 09:13:22;;;;;;;3.60;2.63;;;20.50;51.80;;;;;;5029117;28;20228;-77
2023/05/12 09:15:52;;;;;;;6.23;2.83;;;20.60;53.70;;;;;;5025454;28;20207;-76
2023/05/12 09:18:18;;;;;;;2.83;2.63;;;20.60;53.70;;;;;;5018850;28;20308;-76
2023/05/12 09:20:43;;;;;;;3.00;2.67;;;20.60;53.00;;;;;;5026494;28;20288;-76
2023/05/12 09:23:16;;;;;;;4.17;3.17;;;20.70;52.40;;;;;;5027740;28;20691;-76
2023/05/12 09:25:42;;;;;;;3.23;2.90;;;20.80;52.30;;;;;;5027122;28;20622;-82
2023/05/12 09:28:08;;;;;;;2.97;2.30;;;20.80;51.90;;;;;;5028475;28;20301;-75
2023/05/12 09:30:37;;;;;;;3.97;2.93;;;20.80;52.20;;;;;;5017021;28;20514;-74
2023/05/12 09:33:12;;;;;;;8.33;3.57;;;21.00;51.90;;;;;;5017410;28;20211;-76
2023/05/12 09:35:43;;;;;;;3.63;2.70;;;20.90;49.40;;;;;;5016859;28;20627;-77
2023/05/12 09:38:13;;;;;;;5.73;3.00;;;20.80;49.80;;;;;;5018680;28;20211;-75
2023/05/12 09:40:39;;;;;;;7.70;5.10;;;20.90;52.00;;;;;;5020289;28;20195;-75
2023/05/12 09:43:05;;;;;;;3.00;2.80;;;21.10;52.10;;;;;;5020715;28;20214;-75
2023/05/12 09:45:35;;;;;;;3.87;3.57;;;21.00;49.60;;;;;;5019221;28;20246;-74
2023/05/12 09:48:09;;;;;;;6.40;3.60;;;21.00;50.10;;;;;;5016742;28;20207;-75
2023/05/12 09:50:49;;;;;;;5.70;3.40;;;21.10;51.90;;;;;;5019003;28;20205;-74
2023/05/12 09:53:16;;;;;;;3.60;2.73;;;21.00;51.60;;;;;;5024474;28;20205;-77
2023/05/12 09:55:43;;;;;;;3.27;2.97;;;21.20;49.60;;;;;;5026345;28;20233;-75
2023/05/12 09:58:09;;;;;;;2.87;2.27;;;21.20;50.80;;;;;;5021698;28;20552;-75
2023/05/12 10:00:39;;;;;;;5.87;2.97;;;21.00;49.40;;;;;;5024821;28;20210;-75
2023/05/12 10:03:15;;;;;;;7.97;2.97;;;21.10;50.70;;;;;;5026072;28;20207;-74
2023/05/12 10:06:05;;;;;;;4.90;2.60;;;21.30;49.10;;;;;;5025115;28;20313;-74
2023/05/12 10:08:37;;;;;;;3.50;2.20;;;21.20;48.60;;;;;;5024018;28;20229;-76
2023/05/12 10:11:04;;;;;;;4.43;3.07;;;21.20;50.10;;;;;;5026766;28;20203;-78
2023/05/12 10:13:32;;;;;;;5.23;2.50;;;21.30;50.40;;;;;;5026211;28;20241;-79
2023/05/12 10:15:58;;;;;;;3.43;3.13;;;21.30;48.60;;;;;;5026483;28;20207;-76
2023/05/12 10:18:24;;;;;;;3.00;2.57;;;21.50;47.40;;;;;;5024211;28;20728;-76
2023/05/12 10:20:53;;;;;;;4.40;2.53;;;21.40;49.40;;;;;;5025263;28;20200;-76
2023/05/12 10:23:18;;;;;;;3.23;2.60;;;21.50;49.60;;;;;;5029311;28;20252;-76
2023/05/12 10:25:44;;;;;;;6.63;2.63;;;21.60;50.00;;;;;;4968619;28;20214;-76
2023/05/12 10:28:11;;;;;;;3.33;2.47;;;21.60;48.20;;;;;;5028211;28;20219;-74
2023/05/12 10:30:38;;;;;;;5.13;2.80;;;21.30;47.70;;;;;;5027924;28;20194;-74
2023/05/12 10:33:07;;;;;;;3.90;2.50;;;21.30;47.20;;;;;;5022801;28;20210;-75
2023/05/12 10:35:34;;;;;;;7.07;2.87;;;21.40;49.40;;;;;;5026739;28;20199;-75
2023/05/12 10:38:11;;;;;;;8.17;3.23;;;21.60;50.80;;;;;;5026459;28;20226;-75
2023/05/12 10:40:52;;;;;;;2.90;2.67;;;21.70;48.10;;;;;;5012675;28;20663;-76
2023/05/12 10:43:26;;;;;;;7.07;3.20;;;21.80;49.60;;;;;;5025442;28;20752;-76
2023/05/12 10:46:20;;;;;;;4.00;2.43;;;21.90;48.70;;;;;;5025246;28;20226;-77
2023/05/12 10:48:53;;;;;;;3.43;2.43;;;22.10;49.80;;;;;;5036189;28;20282;-75
2023/05/12 10:51:30;;;;;;;2.90;2.70;;;22.10;50.90;;;;;;5035880;28;20199;-78
2023/05/12 10:54:01;;;;;;;9.43;2.90;;;22.10;49.30;;;;;;5034381;28;20236;-78
2023/05/12 10:56:36;;;;;;;3.93;2.97;;;22.20;51.00;;;;;;5027902;28;20775;-76
2023/05/12 10:59:19;;;;;;;4.15;2.72;;;22.50;48.70;;;;;;5022646;28;20557;-77
2023/05/12 11:02:00;;;;;;;3.55;2.53;;;22.60;47.80;;;;;;5028961;28;20206;-81
2023/05/12 11:04:46;;;;;;;4.07;2.50;;;22.90;48.80;;;;;;5036941;28;20191;-80
2023/05/12 11:07:13;;;;;;;5.27;2.90;;;22.90;46.80;;;;;;5033836;28;20282;-80
2023/05/12 11:09:40;;;;;;;3.10;2.80;;;22.40;45.30;;;;;;5026293;28;20205;-76
2023/05/12 11:12:07;;;;;;;4.97;2.83;;;22.50;47.90;;;;;;5022961;28;21085;-77
2023/05/12 11:14:34;;;;;;;4.47;2.97;;;22.80;47.30;;;;;;5035451;28;20195;-78
2023/05/12 11:17:00;;;;;;;2.40;2.30;;;23.00;50.10;;;;;;5035454;28;20203;-77
2023/05/12 11:19:26;;;;;;;4.28;2.83;;;23.10;49.10;;;;;;5025423;28;20252;-77
2023/05/12 11:21:54;;;;;;;2.93;2.50;;;23.20;47.00;;;;;;5033250;28;20286;-77
2023/05/12 11:24:20;;;;;;;3.53;2.97;;;23.00;46.70;;;;;;5033270;28;20254;-77
2023/05/12 11:26:50;;;;;;;3.27;2.63;;;22.80;47.20;;;;;;5031888;28;20222;-76
2023/05/12 11:29:19;;;;;;;3.60;3.30;;;23.00;49.00;;;;;;5027514;28;20272;-76
2023/05/12 11:31:49;;;;;;;4.97;2.78;;;23.20;48.70;;;;;;5029811;28;20743;-74
2023/05/12 11:34:19;;;;;;;4.10;2.85;;;23.40;48.10;;;;;;5021721;28;20307;-75
2023/05/12 11:36:45;;;;;;;4.68;2.70;;;23.00;47.30;;;;;;5022324;28;20196;-74
2023/05/12 11:39:22;;;;;;;4.20;2.78;;;23.20;47.10;;;;;;5021510;28;20199;-75
2023/05/12 11:41:49;;;;;;;6.28;3.17;;;23.20;46.40;;;;;;5023222;28;20203;-75
2023/05/12 11:44:24;;;;;;;3.13;2.70;;;23.00;46.60;;;;;;5022420;28;20281;-75
2023/05/12 11:46:58;;;;;;;2.60;2.40;;;23.10;47.60;;;;;;5023541;28;20899;-77
2023/05/12 11:49:24;;;;;;;2.60;2.40;;;23.40;46.30;;;;;;5024039;28;20195;-77
2023/05/12 11:51:51;;;;;;;5.90;2.53;;;23.40;46.90;;;;;;5024027;28;20289;-78
2023/05/12 11:54:17;;;;;;;5.00;3.13;;;23.50;47.20;;;;;;5021695;28;20202;-79
2023/05/12 11:56:50;;;;;;;7.10;3.35;;;23.50;47.30;;;;;;5017896;28;20207;-76
2023/05/12 11:59:33;;;;;;;2.97;2.78;;;23.40;47.60;;;;;;5021843;28;20207;-77
2023/05/12 12:02:00;;;;;;;4.55;2.75;;;23.80;45.90;;;;;;5020246;28;20234;-77
2023/05/12 12:04:40;;;;;;;5.35;2.55;;;24.10;46.70;;;;;;5020865;28;20234;-78
2023/05/12 12:07:07;;;;;;;6.00;3.13;;;24.30;45.70;;;;;;5021907;28;20229;-77
2023/05/12 12:09:41;;;;;;;3.45;3.10;;;24.80;44.80;;;;;;5023236;28;20235;-80
2023/05/12 12:12:08;;;;;;;5.20;2.90;;;24.50;45.30;;;;;;5021380;28;20350;-77
2023/05/12 12:14:37;;;;;;;4.15;2.90;;;24.10;46.40;;;;;;5022716;28;20220;-80
2023/05/12 12:17:03;;;;;;;4.35;3.00;;;23.80;44.70;;;;;;5022115;28;20279;-81
2023/05/12 12:19:29;;;;;;;4.90;3.20;;;23.80;47.00;;;;;;5018830;28;20209;-78
2023/05/12 12:21:55;;;;;;;4.15;2.97;;;23.80;46.50;;;;;;5034839;28;20205;-79
2023/05/12 12:24:21;;;;;;;2.83;2.63;;;24.10;45.80;;;;;;5034890;28;20248;-79
2023/05/12 12:26:46;;;;;;;8.13;2.78;;;24.60;44.00;;;;;;5018664;28;20301;-79
2023/05/12 12:29:12;;;;;;;5.53;3.75;;;24.00;45.60;;;;;;5026581;28;20231;-79
2023/05/12 12:31:37;;;;;;;11.00;4.60;;;24.20;44.60;;;;;;5027504;28;20192;-78
2023/05/12 12:34:03;;;;;;;4.30;2.53;;;24.30;46.60;;;;;;5028452;28;20239;-78
2023/05/12 12:36:29;;;;;;;4.97;3.03;;;24.40;44.10;;;;;;5037664;28;20212;-78
2023/05/12 12:38:55;;;;;;;3.90;3.00;;;24.70;44.30;;;;;;5033527;28;20638;-78
2023/05/12 12:41:21;;;;;;;4.30;3.00;;;24.60;45.50;;;;;;5026436;28;20283;-78
2023/05/12 12:43:47;;;;;;;3.60;2.75;;;24.60;44.30;;;;;;5036222;28;20215;-86
2023/05/12 12:46:12;;;;;;;4.57;3.20;;;24.50;46.60;;;;;;5020756;28;20209;-78